LELN/LEN METAR and TAF weather

Enter ICAO airport designator
Station Type Date Time Source
LELN METAR 2021/07/27 20:30 UTC NOAA

LELN 272030Z AUTO 02005KT 330V080 CAVOK 16/11 Q1017


Station Type Date Time Source
LELN Decoded METAR 2021/07/27 20:30 UTC NOAA

Leon / Virgen Del Camino, Spain (LELN) 42-35N 005-39W 914M
Jul 27, 2021 - 04:30 PM EDT / 2021.07.27 2030 UTC
Wind: from the NNE (020 degrees) at 6 MPH (5 KT) (direction variable):0
Visibility: greater than 7 mile(s):0
Temperature: 60 F (16 C)
Dew Point: 51 F (11 C)
Relative Humidity: 72%
Pressure (altimeter): 30.03 in. Hg (1017 hPa)
ob: LELN 272030Z AUTO 02005KT 330V080 CAVOK 16/11 Q1017
cycle: 20

Station Type Date Time Source
LELN TAF 2021/07/27 21:27 UTC NOAA

TAF LELN 272000Z 2721/2821 01008KT 9999 FEW030 TX28/2816Z TN07/2805Z

Example: see airport list